createdAt,value
2023-02-04T00:00:37.744Z,96378.38
2023-02-04T00:03:06.948Z,96335.72
2023-02-04T00:05:35.443Z,96397.88
2023-02-04T00:08:06.461Z,96389.06
2023-02-04T00:10:37.252Z,96405.69
2023-02-04T00:13:05.656Z,96410.38
2023-02-04T00:15:34.003Z,96419.59
2023-02-04T00:18:04.342Z,96421.25
2023-02-04T00:20:34.182Z,96395.88
2023-02-04T00:23:04.132Z,96381.16
2023-02-04T00:25:33.826Z,96413.25
2023-02-04T00:28:04.431Z,96425.34
2023-02-04T00:30:33.397Z,96428.81
2023-02-04T00:33:01.795Z,96431.50
2023-02-04T00:35:30.176Z,96462.03
2023-02-04T00:37:58.694Z,96410.06
2023-02-04T00:40:27.058Z,96429.94
2023-02-04T00:42:55.440Z,96409.47
2023-02-04T00:45:25.404Z,96388.00
2023-02-04T00:47:53.849Z,96476.81
2023-02-04T00:50:22.198Z,96469.06
2023-02-04T00:52:50.597Z,96464.34
2023-02-04T00:55:19.025Z,96472.53
2023-02-04T00:57:48.306Z,96479.91
2023-02-04T01:00:19.119Z,96368.34
2023-02-04T01:02:48.986Z,96473.75
2023-02-04T01:05:17.359Z,96492.59
2023-02-04T01:07:45.736Z,96476.22
2023-02-04T01:10:16.313Z,96482.78
2023-02-04T01:12:45.059Z,96490.13
2023-02-04T01:15:13.551Z,96497.09
2023-02-04T01:17:42.689Z,96502.00
2023-02-04T01:20:13.575Z,96467.63
2023-02-04T01:22:43.057Z,96506.13
2023-02-04T01:25:11.452Z,96513.50
2023-02-04T01:27:39.810Z,96503.66
2023-02-04T01:30:09.565Z,96510.19
2023-02-04T01:32:37.950Z,96517.78
2023-02-04T01:35:07.595Z,96525.97
2023-02-04T01:37:37.475Z,96521.25
2023-02-04T01:40:07.314Z,96516.78
2023-02-04T01:42:35.754Z,96536.63
2023-02-04T01:45:06.438Z,96536.22
2023-02-04T01:47:35.242Z,96537.66
2023-02-04T01:50:04.127Z,96497.13
2023-02-04T01:52:38.361Z,96545.25
2023-02-04T01:55:12.657Z,96536.84
2023-02-04T01:57:41.230Z,96557.91
2023-02-04T02:00:15.867Z,96574.53
2023-02-04T02:02:47.297Z,96579.03
2023-02-04T02:05:21.322Z,96565.28
2023-02-04T02:07:52.476Z,96591.72
2023-02-04T02:10:21.474Z,96594.59
2023-02-04T02:12:50.935Z,96582.28
2023-02-04T02:15:20.206Z,96587.19
2023-02-04T02:17:48.905Z,96594.16
2023-02-04T02:20:19.484Z,96606.41
2023-02-04T02:22:59.640Z,96617.47
2023-02-04T02:25:29.457Z,96620.34
2023-02-04T02:27:59.780Z,96562.84
2023-02-04T02:30:30.246Z,96622.13
2023-02-04T02:32:59.376Z,96583.09
2023-02-04T02:35:27.981Z,96626.16
2023-02-04T02:37:56.371Z,96621.06
2023-02-04T02:40:25.047Z,96606.66
2023-02-04T02:42:55.582Z,96597.41
2023-02-04T02:45:27.054Z,96643.34
2023-02-04T02:47:57.603Z,96637.97
2023-02-04T02:50:28.064Z,96584.53
2023-02-04T02:52:57.228Z,96657.41
2023-02-04T02:55:28.013Z,96668.50
2023-02-04T02:57:58.978Z,96680.31
2023-02-04T03:00:29.962Z,96679.47
2023-02-04T03:03:02.643Z,96629.59
2023-02-04T03:05:34.081Z,96679.47
2023-02-04T03:08:02.862Z,96615.50
2023-02-04T03:10:31.597Z,96670.00
2023-02-04T03:13:01.983Z,96655.53
2023-02-04T03:15:30.658Z,96617.31
2023-02-04T03:17:59.541Z,96642.34
2023-02-04T03:20:31.274Z,96715.81
2023-02-04T03:23:00.103Z,96724.19
2023-02-04T03:25:29.409Z,96726.06
2023-02-04T03:27:59.330Z,96728.50
2023-02-04T03:30:29.777Z,96749.56
2023-02-04T03:32:58.690Z,96750.22
2023-02-04T03:35:27.149Z,96765.28
2023-02-04T03:37:55.592Z,96759.78
2023-02-04T03:40:23.917Z,96660.25
2023-02-04T03:42:52.257Z,96787.41
2023-02-04T03:45:20.757Z,96792.91
2023-02-04T03:47:50.572Z,96796.44
2023-02-04T03:50:19.044Z,96801.91
2023-02-04T03:52:49.087Z,96797.69
2023-02-04T03:55:17.539Z,96805.75
2023-02-04T03:57:45.885Z,96817.19
2023-02-04T04:00:15.476Z,96810.91
2023-02-04T04:02:44.530Z,96818.91
2023-02-04T04:05:14.418Z,96819.22
2023-02-04T04:07:42.816Z,96830.09
2023-02-04T04:10:11.558Z,96832.16
2023-02-04T04:12:39.937Z,96829.59
2023-02-04T04:15:08.936Z,96851.28
2023-02-04T04:17:37.304Z,96852.38
2023-02-04T04:20:06.796Z,96845.03
2023-02-04T04:22:36.599Z,96850.63
2023-02-04T04:25:05.261Z,96828.34
2023-02-04T04:27:33.875Z,96855.66
2023-02-04T04:30:02.463Z,96859.97
2023-02-04T04:32:30.828Z,96869.22
2023-02-04T04:34:59.217Z,96875.16
2023-02-04T04:37:27.673Z,96873.88
2023-02-04T04:39:57.422Z,96869.47
2023-02-04T04:42:25.830Z,96882.47
2023-02-04T04:44:54.116Z,96880.72
2023-02-04T04:47:22.483Z,96891.34
2023-02-04T04:49:50.893Z,96890.09
2023-02-04T04:52:19.362Z,96895.94
2023-02-04T04:54:47.643Z,96904.00
2023-02-04T04:57:17.524Z,96911.03
2023-02-04T04:59:45.917Z,96908.31
2023-02-04T05:02:14.264Z,96922.41
2023-02-04T05:04:42.745Z,96926.44
2023-02-04T05:07:11.155Z,96929.28
2023-02-04T05:09:39.468Z,96937.06
2023-02-04T05:12:07.995Z,96950.63
2023-02-04T05:14:37.690Z,96952.44
2023-02-04T05:17:06.805Z,96949.16
2023-02-04T05:19:35.171Z,96956.66
2023-02-04T05:22:03.548Z,96946.28
2023-02-04T05:24:31.821Z,96945.66
2023-02-04T05:27:00.401Z,96952.91
2023-02-04T05:29:28.806Z,96949.06
2023-02-04T05:31:58.638Z,96969.69
2023-02-04T05:34:27.082Z,96975.44
2023-02-04T05:36:55.478Z,96972.97
2023-02-04T05:39:23.875Z,96983.47
2023-02-04T05:41:52.244Z,96981.41
2023-02-04T05:44:20.656Z,96989.47
2023-02-04T05:46:49.039Z,96986.59
2023-02-04T05:49:18.839Z,96930.75
2023-02-04T05:51:47.226Z,96987.81
2023-02-04T05:54:19.591Z,96994.09
2023-02-04T05:56:48.589Z,97004.81
2023-02-04T05:59:16.919Z,96992.72
2023-02-04T06:01:45.417Z,96974.25
2023-02-04T06:04:15.626Z,96944.06
2023-02-04T06:06:45.738Z,97014.31
2023-02-04T06:09:14.297Z,97023.75
2023-02-04T06:11:42.653Z,97027.44
2023-02-04T06:14:11.036Z,97033.75
2023-02-04T06:16:39.380Z,97031.53
2023-02-04T06:19:07.812Z,97039.19
2023-02-04T06:21:36.152Z,97045.19
2023-02-04T06:24:06.437Z,97032.78
2023-02-04T06:26:34.776Z,97019.72
2023-02-04T06:29:03.233Z,97070.06
2023-02-04T06:31:31.903Z,97064.75
2023-02-04T06:34:00.367Z,97063.56
2023-02-04T06:36:28.746Z,97067.59
2023-02-04T06:38:57.593Z,97079.38
2023-02-04T06:41:27.416Z,97071.41
2023-02-04T06:43:55.750Z,97072.94
2023-02-04T06:46:24.451Z,97006.06
2023-02-04T06:48:52.868Z,97063.00
2023-02-04T06:51:21.196Z,97077.84
2023-02-04T06:53:49.623Z,97080.94
2023-02-04T06:56:18.033Z,97075.53
2023-02-04T06:58:47.880Z,97081.88
2023-02-04T07:01:16.360Z,97097.31
2023-02-04T07:03:44.789Z,97055.44
2023-02-04T07:06:13.210Z,97107.78
2023-02-04T07:08:41.588Z,97093.69
2023-02-04T07:11:10.075Z,97112.13
2023-02-04T07:13:38.454Z,97119.94
2023-02-04T07:16:09.313Z,97103.59
2023-02-04T07:18:37.780Z,97121.63
2023-02-04T07:21:06.512Z,97130.63
2023-02-04T07:23:34.831Z,97132.69
2023-02-04T07:26:03.189Z,97118.44
2023-02-04T07:28:31.695Z,97127.88
2023-02-04T07:31:00.213Z,97131.00
2023-02-04T07:33:30.367Z,97137.91
2023-02-04T07:35:58.670Z,97135.22
2023-02-04T07:38:27.143Z,97097.63
2023-02-04T07:40:55.569Z,97150.81
2023-02-04T07:43:24.600Z,97166.00
2023-02-04T07:45:52.934Z,97134.63
2023-02-04T07:48:21.426Z,97153.66
2023-02-04T07:50:51.259Z,97171.63
2023-02-04T07:53:19.595Z,97170.25
2023-02-04T07:55:47.945Z,97181.25
2023-02-04T07:58:16.498Z,97152.34
2023-02-04T08:00:44.895Z,97186.22
2023-02-04T08:03:13.204Z,97199.31
2023-02-04T08:05:41.672Z,97185.53
2023-02-04T08:08:11.377Z,97196.78
2023-02-04T08:10:39.818Z,97200.75
2023-02-04T08:13:08.256Z,97202.34
2023-02-04T08:15:36.688Z,97205.31
2023-02-04T08:18:05.873Z,97207.91
2023-02-04T08:20:34.920Z,97202.47
2023-02-04T08:23:03.420Z,97202.41
2023-02-04T08:25:33.124Z,97218.88
2023-02-04T08:28:01.591Z,97221.81
2023-02-04T08:30:30.338Z,97229.09
2023-02-04T08:32:59.164Z,97227.91
2023-02-04T08:35:27.991Z,97227.06
2023-02-04T08:37:56.471Z,97240.16
2023-02-04T08:40:24.757Z,97243.56
2023-02-04T08:42:54.626Z,97248.84
2023-02-04T08:45:22.965Z,97226.38
2023-02-04T08:47:51.284Z,97254.34
2023-02-04T08:50:19.919Z,97214.09
2023-02-04T08:52:48.285Z,97260.00
2023-02-04T08:55:17.080Z,97185.31
2023-02-04T08:57:45.437Z,97277.47
2023-02-04T09:00:16.551Z,97272.56
2023-02-04T09:02:45.047Z,97206.94
2023-02-04T09:05:13.552Z,97244.72
2023-02-04T09:07:41.840Z,97293.66
2023-02-04T09:10:10.590Z,97290.16
2023-02-04T09:12:39.005Z,97277.22
2023-02-04T09:15:07.807Z,97297.53
2023-02-04T09:17:37.813Z,97301.00
2023-02-04T09:20:07.947Z,97295.44
2023-02-04T09:22:37.936Z,97302.06
2023-02-04T09:25:06.852Z,97307.00
2023-02-04T09:27:35.228Z,97294.50
2023-02-04T09:30:03.566Z,97309.53
2023-02-04T09:32:32.081Z,97296.59
2023-02-04T09:35:01.966Z,97317.38
2023-02-04T09:37:30.398Z,97263.78
2023-02-04T09:39:58.729Z,97315.75
2023-02-04T09:42:28.209Z,97328.50
2023-02-04T09:44:56.647Z,97335.47
2023-02-04T09:47:26.808Z,97337.94
2023-02-04T09:49:55.181Z,97332.63
2023-02-04T09:52:25.242Z,97337.94
2023-02-04T09:54:53.584Z,97340.59
2023-02-04T09:57:22.615Z,97341.91
2023-02-04T09:59:52.933Z,97343.38
2023-02-04T10:02:26.510Z,97343.16
2023-02-04T10:04:59.067Z,97211.84
2023-02-04T10:07:32.482Z,97340.78
2023-02-04T10:10:01.659Z,97326.19
2023-02-04T10:12:32.607Z,97344.00
2023-02-04T10:15:04.354Z,97340.78
2023-02-04T10:17:33.604Z,97299.09
2023-02-04T10:20:03.787Z,97343.00
2023-02-04T10:22:34.333Z,97345.31
2023-02-04T10:25:03.009Z,97349.03
2023-02-04T10:27:31.395Z,97277.44
2023-02-04T10:30:00.702Z,97356.50
2023-02-04T10:32:31.598Z,97355.81
2023-02-04T10:35:04.224Z,97358.16
2023-02-04T10:37:34.670Z,97332.25
2023-02-04T10:40:03.011Z,97363.34
2023-02-04T10:42:32.634Z,97362.94
2023-02-04T10:45:01.306Z,97363.47
2023-02-04T10:47:31.967Z,97364.63
2023-02-04T10:50:04.851Z,97356.38
2023-02-04T10:52:39.589Z,97359.88
2023-02-04T10:55:13.702Z,97352.84
2023-02-04T10:57:43.718Z,97321.25
2023-02-04T11:00:18.637Z,97355.19
2023-02-04T11:02:53.826Z,97361.00
2023-02-04T11:05:24.740Z,97313.66
2023-02-04T11:07:54.628Z,97357.50
2023-02-04T11:10:25.748Z,97362.88
2023-02-04T11:13:05.871Z,97369.06
2023-02-04T11:15:47.420Z,97365.75
2023-02-04T11:18:30.259Z,97371.84
2023-02-04T11:21:00.728Z,97372.81
2023-02-04T11:23:38.170Z,97377.63
2023-02-04T11:26:10.693Z,97357.31
2023-02-04T11:28:52.482Z,97385.16
2023-02-04T11:31:47.084Z,97378.03
2023-02-04T11:34:32.735Z,97379.69
2023-02-04T11:37:29.040Z,97381.16
2023-02-04T11:40:02.966Z,97402.84
2023-02-04T11:42:44.909Z,97392.03
2023-02-04T11:45:17.344Z,97379.09
2023-02-04T11:47:46.337Z,97349.97
2023-02-04T11:50:19.206Z,97394.22
2023-02-04T11:52:47.613Z,97405.16
2023-02-04T11:55:19.376Z,97403.59
2023-02-04T11:57:53.503Z,97378.66
2023-02-04T12:00:26.225Z,97398.41
2023-02-04T12:02:59.339Z,97409.22
2023-02-04T12:05:39.718Z,97409.44
2023-02-04T12:08:13.302Z,97392.91
2023-02-04T12:10:51.332Z,97360.41
2023-02-04T12:13:28.298Z,97411.06
2023-02-04T12:16:01.999Z,97409.53
2023-02-04T12:18:31.177Z,97418.34
2023-02-04T12:21:00.799Z,97386.38
2023-02-04T12:23:31.195Z,97398.66
2023-02-04T12:26:01.315Z,97409.41
2023-02-04T12:28:30.000Z,97419.56
2023-02-04T12:30:58.954Z,97413.06
2023-02-04T12:33:27.459Z,97407.41
2023-02-04T12:35:56.035Z,97403.44
2023-02-04T12:38:24.355Z,97393.41
2023-02-04T12:40:52.785Z,97355.00
2023-02-04T12:43:22.877Z,97412.72
2023-02-04T12:45:51.324Z,97409.53
2023-02-04T12:48:19.654Z,97414.78
2023-02-04T12:50:48.079Z,97394.16
2023-02-04T12:53:17.307Z,97411.97
2023-02-04T12:55:47.098Z,97417.41
2023-02-04T12:58:15.684Z,97407.47
2023-02-04T13:00:46.334Z,97418.41
2023-02-04T13:03:14.994Z,97403.78
2023-02-04T13:05:43.499Z,97372.31
2023-02-04T13:08:12.700Z,97415.38
2023-02-04T13:10:41.650Z,97407.50
2023-02-04T13:13:11.001Z,97396.53
2023-02-04T13:15:39.708Z,97386.00
2023-02-04T13:18:09.668Z,97445.97
2023-02-04T13:20:39.126Z,97428.81
2023-02-04T13:23:08.328Z,97427.59
2023-02-04T13:25:38.129Z,97434.50
2023-02-04T13:28:06.807Z,97435.41
2023-02-04T13:30:35.387Z,97430.91
2023-02-04T13:33:03.937Z,97432.31
2023-02-04T13:35:34.200Z,97412.25
2023-02-04T13:38:03.027Z,97425.69
2023-02-04T13:40:31.937Z,97445.63
2023-02-04T13:43:00.348Z,97441.03
2023-02-04T13:45:29.034Z,97435.41
2023-02-04T13:47:58.505Z,97444.69
2023-02-04T13:50:26.920Z,97439.53
2023-02-04T13:52:57.003Z,97441.94
2023-02-04T13:55:25.399Z,97341.59
2023-02-04T13:57:54.178Z,97391.03
2023-02-04T14:00:23.828Z,97196.38
2023-02-04T14:03:04.081Z,97445.78
2023-02-04T14:05:33.448Z,97396.09
2023-02-04T14:08:04.480Z,97446.59
2023-02-04T14:10:33.240Z,97425.38
2023-02-04T14:13:02.144Z,97442.00
2023-02-04T14:15:30.979Z,97404.34
2023-02-04T14:17:59.379Z,97411.88
2023-02-04T14:20:27.857Z,97430.34
2023-02-04T14:22:57.477Z,97420.88
2023-02-04T14:25:27.422Z,97397.72
2023-02-04T14:27:58.671Z,97403.25
2023-02-04T14:30:30.454Z,97434.41
2023-02-04T14:33:00.032Z,97430.38
2023-02-04T14:35:28.625Z,97436.88
2023-02-04T14:37:57.112Z,97431.53
2023-02-04T14:40:27.278Z,97403.34
2023-02-04T14:42:55.645Z,97417.81
2023-02-04T14:45:24.705Z,97443.19
2023-02-04T14:47:57.065Z,97438.25
2023-02-04T14:50:27.284Z,97392.63
2023-02-04T14:52:57.017Z,97449.72
2023-02-04T14:55:27.328Z,97446.31
2023-02-04T14:57:55.709Z,97450.91
2023-02-04T15:00:25.908Z,97424.16
2023-02-04T15:02:55.656Z,97408.97
2023-02-04T15:05:24.015Z,97431.41
2023-02-04T15:07:52.345Z,97446.66
2023-02-04T15:10:21.421Z,97455.66
2023-02-04T15:12:51.507Z,97458.59
2023-02-04T15:15:20.024Z,97459.63
2023-02-04T15:17:50.691Z,97461.97
2023-02-04T15:20:20.085Z,97464.94
2023-02-04T15:22:52.193Z,97460.03
2023-02-04T15:25:20.737Z,97477.25
2023-02-04T15:27:51.687Z,97462.41
2023-02-04T15:30:20.278Z,97465.44
2023-02-04T15:32:48.923Z,97461.84
2023-02-04T15:35:18.407Z,97468.44
2023-02-04T15:37:46.878Z,97474.25
2023-02-04T15:40:16.418Z,97459.69
2023-02-04T15:42:44.858Z,97481.53
2023-02-04T15:45:15.474Z,97468.56
2023-02-04T15:47:44.764Z,97458.84
2023-02-04T15:50:15.389Z,97468.84
2023-02-04T15:52:44.238Z,97469.34
2023-02-04T15:55:12.599Z,97471.03
2023-02-04T15:57:41.961Z,97484.16
2023-02-04T16:00:11.400Z,97479.84
2023-02-04T16:02:43.245Z,97481.09
2023-02-04T16:05:11.712Z,97484.63
2023-02-04T16:07:40.031Z,97483.53
2023-02-04T16:10:09.219Z,97475.16
2023-02-04T16:12:37.601Z,97419.19
2023-02-04T16:15:06.452Z,97491.44
2023-02-04T16:17:34.830Z,97493.75
2023-02-04T16:20:04.986Z,97494.41
2023-02-04T16:22:33.787Z,97499.56
2023-02-04T16:25:02.171Z,97505.34
2023-02-04T16:27:32.002Z,97483.53
2023-02-04T16:30:00.536Z,97503.06
2023-02-04T16:32:29.168Z,97519.06
2023-02-04T16:34:59.711Z,97527.53
2023-02-04T16:37:29.761Z,97515.47
2023-02-04T16:39:58.216Z,97525.75
2023-02-04T16:42:26.572Z,97527.44
2023-02-04T16:44:54.917Z,97530.38
2023-02-04T16:47:23.459Z,97528.88
2023-02-04T16:49:52.042Z,97529.16
2023-02-04T16:52:20.487Z,97536.63
2023-02-04T16:54:50.296Z,97528.19
2023-02-04T16:57:18.845Z,97528.00
2023-02-04T16:59:47.276Z,97509.28
2023-02-04T17:02:15.673Z,97528.66
2023-02-04T17:04:43.952Z,97527.63
2023-02-04T17:07:12.334Z,97532.97
2023-02-04T17:09:40.672Z,97536.97
2023-02-04T17:12:10.627Z,97526.50
2023-02-04T17:14:41.242Z,97527.34
2023-02-04T17:17:09.713Z,97518.72
2023-02-04T17:19:38.040Z,97517.75
2023-02-04T17:22:06.363Z,97515.63
2023-02-04T17:24:36.601Z,97512.63
2023-02-04T17:27:04.987Z,97509.66
2023-02-04T17:29:34.958Z,97508.19
2023-02-04T17:32:03.295Z,97507.53
2023-02-04T17:34:31.720Z,97502.09
2023-02-04T17:37:00.063Z,97506.06
2023-02-04T17:39:28.496Z,97505.13
2023-02-04T17:41:56.830Z,97473.50
2023-02-04T17:44:27.094Z,97458.91
2023-02-04T17:46:59.165Z,97498.53
2023-02-04T17:49:27.942Z,97509.34
2023-02-04T17:51:56.465Z,97506.34
2023-02-04T17:54:25.248Z,97458.63
2023-02-04T17:56:53.726Z,97515.69
2023-02-04T17:59:22.206Z,97509.34
2023-02-04T18:01:50.952Z,97473.88
2023-02-04T18:04:21.201Z,97445.41
2023-02-04T18:06:53.011Z,97510.38
2023-02-04T18:09:21.490Z,97514.34
2023-02-04T18:11:49.852Z,97437.13
2023-02-04T18:14:22.277Z,97475.41
2023-02-04T18:16:50.713Z,97481.19
2023-02-04T18:19:22.274Z,97499.44
2023-02-04T18:21:51.722Z,97475.53
2023-02-04T18:24:24.058Z,97528.78
2023-02-04T18:26:54.012Z,97531.94
2023-02-04T18:29:34.121Z,97542.19
2023-02-04T18:32:04.659Z,97545.69
2023-02-04T18:34:38.734Z,97527.91
2023-02-04T18:37:30.034Z,97538.38
2023-02-04T18:40:17.802Z,97534.88
2023-02-04T18:42:47.498Z,97521.75
2023-02-04T18:45:24.172Z,97537.84
2023-02-04T18:47:55.315Z,97513.94
2023-02-04T18:50:29.924Z,97539.47
2023-02-04T18:53:01.974Z,97501.97
2023-02-04T18:55:34.946Z,97520.22
2023-02-04T18:58:27.656Z,97530.69
2023-02-04T19:00:59.851Z,97525.38
2023-02-04T19:03:30.103Z,97543.63
2023-02-04T19:06:02.011Z,97544.13
2023-02-04T19:08:37.191Z,97462.66
2023-02-04T19:11:18.367Z,97532.47
2023-02-04T19:13:47.095Z,97549.22
2023-02-04T19:16:23.535Z,97551.69
2023-02-04T19:18:54.026Z,97532.47
2023-02-04T19:21:30.076Z,97547.41
2023-02-04T19:24:09.434Z,97517.69
2023-02-04T19:26:41.471Z,97550.72
2023-02-04T19:29:41.555Z,97547.53
2023-02-04T19:32:28.650Z,97530.41
2023-02-04T19:35:01.341Z,97547.31
2023-02-04T19:37:40.034Z,97549.94
2023-02-04T19:40:29.172Z,97548.59
2023-02-04T19:43:04.213Z,97167.31
2023-02-04T19:45:32.809Z,97547.94
2023-02-04T19:48:03.411Z,97552.56
2023-02-04T19:50:35.596Z,97546.56
2023-02-04T19:53:14.397Z,97551.72
2023-02-04T19:55:45.352Z,97548.38
2023-02-04T19:58:20.192Z,97515.19
2023-02-04T20:01:00.537Z,97542.75
2023-02-04T20:03:42.843Z,97545.41
2023-02-04T20:06:33.857Z,97547.91
2023-02-04T20:09:08.196Z,97518.03
2023-02-04T20:11:58.292Z,97548.22
2023-02-04T20:14:42.893Z,97545.13
2023-02-04T20:17:20.642Z,97555.78
2023-02-04T20:19:49.659Z,97564.72
2023-02-04T20:22:45.777Z,97565.03
2023-02-04T20:25:38.621Z,97565.66
2023-02-04T20:28:36.069Z,97570.44
2023-02-04T20:31:23.841Z,97563.78
2023-02-04T20:33:54.394Z,97521.41
2023-02-04T20:36:38.549Z,97514.22
2023-02-04T20:39:34.342Z,97529.88
2023-02-04T20:42:40.411Z,97565.56
2023-02-04T20:45:24.669Z,97561.09
2023-02-04T20:47:55.493Z,97562.06
2023-02-04T20:50:38.415Z,97553.13
2023-02-04T20:53:23.646Z,97570.63
2023-02-04T20:55:55.502Z,97551.03
2023-02-04T20:58:28.184Z,97519.53
2023-02-04T21:00:57.003Z,97573.13
2023-02-04T21:03:29.036Z,97544.59
2023-02-04T21:06:00.201Z,97564.44
2023-02-04T21:08:38.295Z,97550.81
2023-02-04T21:11:07.147Z,97559.13
2023-02-04T21:13:37.686Z,97587.00
2023-02-04T21:16:08.158Z,97590.91
2023-02-04T21:18:37.379Z,97568.66
2023-02-04T21:21:08.029Z,97564.28
2023-02-04T21:23:36.896Z,97592.84
2023-02-04T21:26:05.840Z,97553.25
2023-02-04T21:28:34.771Z,97585.03
2023-02-04T21:31:04.739Z,97554.03
2023-02-04T21:33:33.345Z,97580.59
2023-02-04T21:36:01.750Z,97570.38
2023-02-04T21:38:30.024Z,97571.84
2023-02-04T21:40:58.475Z,97593.28
2023-02-04T21:43:26.946Z,97569.75
2023-02-04T21:45:55.411Z,97271.81
2023-02-04T21:48:25.128Z,97594.97
2023-02-04T21:50:54.034Z,97600.56
2023-02-04T21:53:22.440Z,97600.03
2023-02-04T21:55:50.885Z,97578.44
2023-02-04T21:58:19.199Z,97593.91
2023-02-04T22:00:47.538Z,97587.28
2023-02-04T22:03:17.556Z,97582.53
2023-02-04T22:05:47.345Z,97581.03
2023-02-04T22:08:15.759Z,97569.00
2023-02-04T22:10:44.141Z,97578.69
2023-02-04T22:13:29.616Z,97576.03
2023-02-04T22:15:58.054Z,97572.56
2023-02-04T22:18:26.478Z,97428.25
2023-02-04T22:20:56.324Z,97562.81
2023-02-04T22:23:24.711Z,97548.22
2023-02-04T22:25:53.162Z,97476.59
2023-02-04T22:28:21.671Z,97538.19
2023-02-04T22:30:50.792Z,97548.66
2023-02-04T22:33:20.160Z,97552.25
2023-02-04T22:35:48.678Z,97518.56
2023-02-04T22:38:20.615Z,97559.94
2023-02-04T22:40:50.170Z,97557.59
2023-02-04T22:43:18.677Z,97549.19
2023-02-04T22:45:46.951Z,97546.13
2023-02-04T22:48:15.405Z,97563.56
2023-02-04T22:50:43.745Z,97528.06
2023-02-04T22:53:12.075Z,97561.06
2023-02-04T22:55:41.948Z,97554.94
2023-02-04T22:58:10.307Z,97554.94
2023-02-04T23:00:38.717Z,97535.97
2023-02-04T23:03:07.150Z,97552.75
2023-02-04T23:05:36.554Z,97504.94
2023-02-04T23:08:05.082Z,97544.13
2023-02-04T23:10:33.592Z,97558.13
2023-02-04T23:13:03.480Z,97550.19
2023-02-04T23:15:32.143Z,97547.69
2023-02-04T23:18:00.722Z,97502.06
2023-02-04T23:20:29.416Z,97535.97
2023-02-04T23:22:57.992Z,97640.50
2023-02-04T23:25:26.340Z,97482.38
2023-02-04T23:27:54.838Z,97562.00
2023-02-04T23:30:24.812Z,97537.75
2023-02-04T23:32:53.292Z,97551.91
2023-02-04T23:35:21.588Z,97507.16
2023-02-04T23:37:50.090Z,97552.88
2023-02-04T23:40:18.738Z,97524.75
2023-02-04T23:42:47.246Z,97556.63
2023-02-04T23:45:15.762Z,97529.50
2023-02-04T23:47:45.635Z,97511.63
2023-02-04T23:50:14.129Z,97555.81
2023-02-04T23:52:43.159Z,97547.72
2023-02-04T23:55:11.876Z,97487.00
2023-02-04T23:57:40.529Z,97505.06
